createdAt,value
2022-08-22T00:00:24.532Z,100190.05
2022-08-22T00:01:39.215Z,100192.1
2022-08-22T00:02:43.199Z,100165.11
2022-08-22T00:02:55.978Z,100164.56
2022-08-22T00:02:57.787Z,100180.48999999999
2022-08-22T00:03:00.573Z,100170.5
2022-08-22T00:03:09.768Z,100167.90999999999
2022-08-22T00:05:24.270Z,100192.1
2022-08-22T00:06:36.631Z,100193.19
2022-08-22T00:09:00.982Z,100193.19
2022-08-22T00:11:11.825Z,100196.66
2022-08-22T00:11:42.076Z,100196.66
2022-08-22T00:16:37.714Z,100199.99
2022-08-22T00:18:12.703Z,100199.99
2022-08-22T00:20:38.354Z,100199.99
2022-08-22T00:21:39.006Z,100202.15
2022-08-22T00:22:51.107Z,100202.15
2022-08-22T00:24:22.158Z,100202.15
2022-08-22T00:25:57.145Z,100198.91
2022-08-22T00:26:42.139Z,100198.91
2022-08-22T00:26:51.430Z,100198.91
2022-08-22T00:26:58.031Z,100198.91
2022-08-22T00:28:14.608Z,100198.91
2022-08-22T00:30:15.737Z,100198.91
2022-08-22T00:31:34.208Z,100202.29000000001
2022-08-22T00:33:22.053Z,100202.29000000001
2022-08-22T00:35:23.211Z,100202.29000000001
2022-08-22T00:36:34.624Z,100205.62
2022-08-22T00:38:32.791Z,100205.62
2022-08-22T00:40:54.707Z,100205.62
2022-08-22T00:41:47.402Z,100210.18000000001
2022-08-22T00:43:37.175Z,100210.18000000001
2022-08-22T00:45:58.862Z,100210.13
2022-08-22T00:46:48.996Z,100210.13
2022-08-22T00:48:40.475Z,100210.13
2022-08-22T00:51:00.714Z,100207.7
2022-08-22T00:51:48.649Z,100207.7
2022-08-22T00:53:14.327Z,100207.7
2022-08-22T00:55:19.329Z,100207.7
2022-08-22T00:56:46.127Z,100209.88
2022-08-22T00:57:49.332Z,100209.88
2022-08-22T00:59:46.683Z,100209.88
2022-08-22T01:01:33.299Z,100214.08
2022-08-22T01:03:20.120Z,100214.08
2022-08-22T01:05:22.425Z,100214.08
2022-08-22T01:06:41.555Z,100214.06
2022-08-22T01:06:57.506Z,100214.06
2022-08-22T01:07:06.923Z,100214.06
2022-08-22T01:08:52.843Z,100214.06
2022-08-22T01:11:03.093Z,100216.63
2022-08-22T01:11:45.380Z,100216.63
2022-08-22T01:13:26.429Z,100216.63
2022-08-22T01:15:16.487Z,100216.63
2022-08-22T01:16:48.696Z,100218.89
2022-08-22T01:21:48.649Z,100213.06
2022-08-22T01:25:31.079Z,100213.06
2022-08-22T01:26:48.693Z,100215.8
2022-08-22T01:28:17.997Z,100215.8
2022-08-22T01:30:49.292Z,100215.8
2022-08-22T01:31:48.700Z,100222.14
2022-08-22T01:33:47.862Z,100222.14
2022-08-22T01:36:48.759Z,100223.14
2022-08-22T01:39:02.775Z,100223.14
2022-08-22T01:41:16.203Z,100219.93
2022-08-22T01:41:48.636Z,100219.93
2022-08-22T01:43:09.659Z,100219.93
2022-08-22T01:45:33.643Z,100219.93
2022-08-22T01:46:35.640Z,100223.08
2022-08-22T01:49:45.596Z,100223.08
2022-08-22T01:51:37.712Z,100225.14
2022-08-22T01:53:47.175Z,100225.14
2022-08-22T01:55:42.524Z,100225.14
2022-08-22T01:56:35.032Z,100219.48
2022-08-22T01:58:02.665Z,100219.48
2022-08-22T02:00:35.184Z,100219.48
2022-08-22T02:01:45.200Z,100221.23
2022-08-22T02:03:38.818Z,100221.23
2022-08-22T02:05:23.951Z,100221.23
2022-08-22T02:06:34.784Z,100216.58
2022-08-22T02:08:29.440Z,100216.58
2022-08-22T02:10:58.651Z,100215.99
2022-08-22T02:11:37.712Z,100215.99
2022-08-22T02:13:05.875Z,100215.99
2022-08-22T02:14:51.016Z,100215.99
2022-08-22T02:16:36.284Z,100215.23
2022-08-22T02:17:15.067Z,100215.23
2022-08-22T02:18:49.318Z,100215.23
2022-08-22T02:21:02.017Z,100219.65
2022-08-22T02:21:41.373Z,100219.65
2022-08-22T02:26:07.723Z,100213.64
2022-08-22T02:26:43.087Z,100213.64
2022-08-22T02:28:14.863Z,100213.64
2022-08-22T02:30:20.365Z,100213.64
2022-08-22T02:31:38.924Z,100213.95
2022-08-22T02:33:34.331Z,100213.95
2022-08-22T02:35:55.297Z,100213.95
2022-08-22T02:36:33.796Z,100215.91
2022-08-22T02:38:12.431Z,100215.91
2022-08-22T02:41:36.550Z,100218.55
2022-08-22T02:43:17.068Z,100218.55
2022-08-22T02:44:53.753Z,100218.55
2022-08-22T02:46:42.578Z,100214.69
2022-08-22T02:48:58.545Z,100214.69
2022-08-22T02:51:24.500Z,100219.34
2022-08-22T02:51:34.855Z,100219.34
2022-08-22T02:53:49.083Z,100219.34
2022-08-22T02:55:00.804Z,100219.34
2022-08-22T02:56:34.708Z,100223.27
2022-08-22T02:56:41.906Z,100223.27
2022-08-22T02:56:48.457Z,100223.27
2022-08-22T02:58:23.564Z,100223.27
2022-08-22T03:01:40.754Z,100227.62
2022-08-22T03:01:44.381Z,100227.62
2022-08-22T03:01:46.219Z,100227.62
2022-08-22T03:03:37.800Z,100227.62
2022-08-22T03:05:50.945Z,100227.62
2022-08-22T03:06:36.577Z,100234.45
2022-08-22T03:08:26.295Z,100234.45
2022-08-22T03:10:39.914Z,100234.45
2022-08-22T03:11:34.213Z,100243.89
2022-08-22T03:12:27.570Z,100243.89
2022-08-22T03:14:35.279Z,100243.89
2022-08-22T03:16:35.938Z,100247.96
2022-08-22T03:17:01.215Z,100247.96
2022-08-22T03:19:08.030Z,100247.96
2022-08-22T03:21:32.839Z,100238.42
2022-08-22T03:21:40.133Z,100238.42
2022-08-22T03:23:27.065Z,100238.42
2022-08-22T03:24:55.884Z,100238.42
2022-08-22T03:26:36.333Z,100242.48999999999
2022-08-22T03:28:09.032Z,100242.48999999999
2022-08-22T03:30:54.443Z,100242.48999999999
2022-08-22T03:31:30.476Z,100245.67
2022-08-22T03:35:04.242Z,100245.67
2022-08-22T03:36:30.550Z,100257.20999999999
2022-08-22T03:38:28.492Z,100257.20999999999
2022-08-22T03:40:31.911Z,100257.20999999999
2022-08-22T03:41:48.654Z,100252.78
2022-08-22T03:43:05.501Z,100252.78
2022-08-22T03:45:13.551Z,100252.78
2022-08-22T03:46:47.030Z,100249.0
2022-08-22T03:48:23.213Z,100249.0
2022-08-22T03:50:34.994Z,100249.0
2022-08-22T03:51:39.129Z,100248.54000000001
2022-08-22T03:55:30.852Z,100248.54000000001
2022-08-22T03:56:48.965Z,100252.8
2022-08-22T03:57:45.875Z,100252.8
2022-08-22T03:59:53.092Z,100252.8
2022-08-22T04:01:48.804Z,100251.97
2022-08-22T04:04:05.419Z,100251.97
2022-08-22T04:05:52.809Z,100251.97
2022-08-22T04:06:48.598Z,100257.68000000001
2022-08-22T04:08:04.019Z,100257.68000000001
2022-08-22T04:10:27.082Z,100257.68000000001
2022-08-22T04:11:47.594Z,100264.26
2022-08-22T04:13:36.744Z,100264.26
2022-08-22T04:15:51.671Z,100264.26
2022-08-22T04:16:48.555Z,100276.39
2022-08-22T04:18:51.871Z,100276.39
2022-08-22T04:20:24.176Z,100276.39
2022-08-22T04:21:40.631Z,100282.03
2022-08-22T04:23:23.131Z,100282.03
2022-08-22T04:25:35.401Z,100282.03
2022-08-22T04:26:36.352Z,100282.62
2022-08-22T04:28:03.822Z,100282.62
2022-08-22T04:29:40.479Z,100282.62
2022-08-22T04:31:26.842Z,100287.17
2022-08-22T04:31:33.483Z,100287.17
2022-08-22T04:32:44.246Z,100287.17
2022-08-22T04:34:39.209Z,100287.17
2022-08-22T04:36:15.712Z,100284.07999999999
2022-08-22T04:36:33.947Z,100284.07999999999
2022-08-22T04:38:09.293Z,100284.07999999999
2022-08-22T04:40:32.616Z,100284.07999999999
2022-08-22T04:41:40.250Z,100280.69
2022-08-22T04:45:16.869Z,100280.69
2022-08-22T04:46:37.839Z,100286.51999999999
2022-08-22T04:48:19.479Z,100286.51999999999
2022-08-22T04:49:40.773Z,100286.51999999999
2022-08-22T04:51:34.314Z,100284.34
2022-08-22T04:53:38.594Z,100284.34
2022-08-22T04:55:34.310Z,100284.34
2022-08-22T04:56:41.187Z,100292.97
2022-08-22T04:57:43.850Z,100292.97
2022-08-22T04:59:43.552Z,100292.97
2022-08-22T05:01:38.386Z,100288.55
2022-08-22T05:03:18.678Z,100288.55
2022-08-22T05:05:35.249Z,100288.55
2022-08-22T05:06:32.925Z,100289.68
2022-08-22T05:08:24.183Z,100289.68
2022-08-22T05:11:30.105Z,100290.41
2022-08-22T05:13:26.980Z,100290.41
2022-08-22T05:14:46.533Z,100290.41
2022-08-22T05:16:33.518Z,100292.57
2022-08-22T05:18:46.583Z,100292.57
2022-08-22T05:20:52.129Z,100292.57
2022-08-22T05:21:34.102Z,100292.72
2022-08-22T05:23:18.956Z,100292.72
2022-08-22T05:25:22.541Z,100292.72
2022-08-22T05:26:36.265Z,100298.58
2022-08-22T05:28:33.079Z,100298.58
2022-08-22T05:30:20.754Z,100298.58
2022-08-22T05:31:32.465Z,100302.45
2022-08-22T05:33:44.103Z,100302.45
2022-08-22T05:35:00.360Z,100302.45
2022-08-22T05:36:33.241Z,100306.59000000001
2022-08-22T05:38:26.742Z,100306.59000000001
2022-08-22T05:40:34.996Z,100306.59000000001
2022-08-22T05:41:34.613Z,100309.34
2022-08-22T05:42:29.031Z,100309.34
2022-08-22T05:44:24.732Z,100309.34
2022-08-22T05:46:38.226Z,100305.42
2022-08-22T05:48:38.296Z,100305.42
2022-08-22T05:50:22.752Z,100305.42
2022-08-22T05:51:36.938Z,100307.44
2022-08-22T05:52:49.735Z,100307.44
2022-08-22T05:54:52.809Z,100307.44
2022-08-22T05:56:28.482Z,100299.49
2022-08-22T05:56:35.410Z,100299.49
2022-08-22T05:58:27.594Z,100299.49
2022-08-22T06:01:33.153Z,100296.31000000001
2022-08-22T06:02:01.149Z,100296.31000000001
2022-08-22T06:04:11.323Z,100296.31000000001
2022-08-22T06:06:17.374Z,100294.26
2022-08-22T06:06:32.327Z,100294.26
2022-08-22T06:08:31.494Z,100294.26
2022-08-22T06:11:36.803Z,100297.23
2022-08-22T06:16:37.536Z,100291.5
2022-08-22T06:18:27.135Z,100291.5
2022-08-22T06:21:38.522Z,100299.92
2022-08-22T06:22:10.347Z,100299.92
2022-08-22T06:24:04.360Z,100299.92
2022-08-22T06:26:33.622Z,100293.47
2022-08-22T06:27:33.827Z,100293.47
2022-08-22T06:30:00.397Z,100293.47
2022-08-22T06:31:32.082Z,100294.72
2022-08-22T06:33:12.344Z,100294.72
2022-08-22T06:35:05.791Z,100294.72
2022-08-22T06:36:30.637Z,100297.19
2022-08-22T06:37:31.269Z,100297.19
2022-08-22T06:39:25.914Z,100297.19
2022-08-22T06:41:33.236Z,100307.3
2022-08-22T06:43:21.579Z,100307.3
2022-08-22T06:46:32.348Z,100303.8
2022-08-22T06:48:17.707Z,100303.8
2022-08-22T06:51:07.641Z,100306.22
2022-08-22T06:51:29.358Z,100306.22
2022-08-22T06:53:06.271Z,100306.22
2022-08-22T06:56:20.738Z,100303.86
2022-08-22T06:56:34.395Z,100303.86
2022-08-22T06:58:44.181Z,100303.86
2022-08-22T07:01:15.749Z,100303.86
2022-08-22T07:01:34.258Z,100309.72
2022-08-22T07:02:47.943Z,100309.72
2022-08-22T07:04:40.886Z,100309.72
2022-08-22T07:06:03.422Z,100304.66
2022-08-22T07:06:33.954Z,100304.66
2022-08-22T07:08:13.911Z,100304.66
2022-08-22T07:09:42.401Z,100304.66
2022-08-22T07:11:31.528Z,100299.98000000001
2022-08-22T07:13:24.149Z,100299.98000000001
2022-08-22T07:15:33.372Z,100299.98000000001
2022-08-22T07:16:32.233Z,100301.70000000001
2022-08-22T07:20:07.100Z,100301.70000000001
2022-08-22T07:21:30.745Z,100301.29
2022-08-22T07:21:56.214Z,100301.29
2022-08-22T07:24:14.419Z,100301.29
2022-08-22T07:26:40.275Z,100307.39
2022-08-22T07:28:36.909Z,100307.39
2022-08-22T07:30:06.473Z,100307.39
2022-08-22T07:31:34.074Z,100307.65
2022-08-22T07:32:28.554Z,100307.65
2022-08-22T07:34:36.491Z,100307.65
2022-08-22T07:36:23.227Z,100312.42
2022-08-22T07:36:41.986Z,100312.42
2022-08-22T07:38:35.094Z,100312.42
2022-08-22T07:41:37.021Z,100312.67
2022-08-22T07:43:22.523Z,100312.67
2022-08-22T07:45:39.970Z,100312.67
2022-08-22T07:46:34.540Z,100315.95
2022-08-22T07:49:23.197Z,100315.95
2022-08-22T07:51:12.638Z,100322.22
2022-08-22T07:51:34.570Z,100322.22
2022-08-22T07:53:24.080Z,100322.22
2022-08-22T07:54:50.605Z,100322.22
2022-08-22T07:56:34.475Z,100326.17
2022-08-22T07:57:01.451Z,100326.17
2022-08-22T07:59:13.558Z,100326.17
2022-08-22T08:01:30.230Z,100323.58
2022-08-22T08:03:08.285Z,100323.58
2022-08-22T08:05:36.941Z,100323.58
2022-08-22T08:06:31.014Z,100319.58
2022-08-22T08:07:44.356Z,100319.58
2022-08-22T08:11:08.860Z,100317.55
2022-08-22T08:11:33.917Z,100317.55
2022-08-22T08:13:06.014Z,100317.55
2022-08-22T08:14:19.883Z,100317.55
2022-08-22T08:15:44.465Z,100317.55
2022-08-22T08:16:39.228Z,100313.28
2022-08-22T08:18:11.372Z,100313.28
2022-08-22T08:20:16.416Z,100313.28
2022-08-22T08:21:31.276Z,100319.17
2022-08-22T08:21:38.543Z,100319.17
2022-08-22T08:24:04.766Z,100319.17
2022-08-22T08:26:33.152Z,100318.22
2022-08-22T08:27:09.786Z,100318.22
2022-08-22T08:28:43.409Z,100318.22
2022-08-22T08:30:34.859Z,100318.22
2022-08-22T08:31:31.501Z,100322.18000000001
2022-08-22T08:33:26.545Z,100322.18000000001
2022-08-22T08:36:36.789Z,100316.06
2022-08-22T08:36:48.730Z,100316.06
2022-08-22T08:38:32.370Z,100316.06
2022-08-22T08:41:11.510Z,100304.69
2022-08-22T08:41:42.791Z,100304.69
2022-08-22T08:44:02.154Z,100304.69
2022-08-22T08:46:06.243Z,100314.23
2022-08-22T08:46:55.203Z,100314.23
2022-08-22T08:47:34.603Z,100314.23
2022-08-22T08:49:35.304Z,100314.23
2022-08-22T08:51:17.282Z,100317.22
2022-08-22T08:51:43.785Z,100317.22
2022-08-22T08:52:24.835Z,100317.22
2022-08-22T08:54:19.656Z,100317.22
2022-08-22T08:56:19.854Z,100314.36
2022-08-22T08:56:36.479Z,100314.36
2022-08-22T08:57:36.293Z,100314.36
2022-08-22T08:59:26.094Z,100314.36
2022-08-22T09:01:45.579Z,100324.01999999999
2022-08-22T09:03:19.632Z,100324.01999999999
2022-08-22T09:06:06.099Z,100311.22
2022-08-22T09:06:52.925Z,100311.22
2022-08-22T09:08:01.497Z,100311.22
2022-08-22T09:11:45.330Z,100314.81
2022-08-22T09:12:05.882Z,100314.81
2022-08-22T09:13:18.497Z,100314.81
2022-08-22T09:15:22.705Z,100314.81
2022-08-22T09:16:46.180Z,100310.70999999999
2022-08-22T09:20:19.304Z,100310.70999999999
2022-08-22T09:21:48.417Z,100303.2
2022-08-22T09:22:51.009Z,100303.2
2022-08-22T09:25:05.388Z,100303.2
2022-08-22T09:26:39.444Z,100306.81
2022-08-22T09:28:37.596Z,100306.81
2022-08-22T09:31:51.947Z,100309.42
2022-08-22T09:33:34.256Z,100309.42
2022-08-22T09:35:43.023Z,100309.42
2022-08-22T09:36:37.688Z,100298.17
2022-08-22T09:38:24.744Z,100298.17
2022-08-22T09:41:26.519Z,100306.01000000001
2022-08-22T09:41:38.102Z,100306.01000000001
2022-08-22T09:44:07.938Z,100306.01000000001
2022-08-22T09:46:20.038Z,100300.56
2022-08-22T09:46:37.433Z,100300.56
2022-08-22T09:48:20.221Z,100300.56
2022-08-22T09:51:33.682Z,100298.8
2022-08-22T09:51:38.475Z,100298.8
2022-08-22T09:53:48.631Z,100298.8
2022-08-22T09:55:54.871Z,100298.8
2022-08-22T09:56:36.359Z,100296.12
2022-08-22T09:58:40.286Z,100296.12
2022-08-22T10:00:55.193Z,100296.12
2022-08-22T10:01:33.357Z,100291.71
2022-08-22T10:01:58.903Z,100291.71
2022-08-22T10:03:21.468Z,100291.71
2022-08-22T10:05:40.935Z,100291.71
2022-08-22T10:06:40.696Z,100288.0
2022-08-22T10:07:30.073Z,100288.0
2022-08-22T10:10:55.023Z,100288.0
2022-08-22T10:11:32.926Z,100294.73000000001
2022-08-22T10:13:19.917Z,100294.73000000001
2022-08-22T10:15:56.604Z,100298.94
2022-08-22T10:16:42.502Z,100298.94
2022-08-22T10:17:31.769Z,100298.94
2022-08-22T10:19:27.594Z,100298.94
2022-08-22T10:21:24.367Z,100290.7
2022-08-22T10:21:36.481Z,100290.7
2022-08-22T10:23:13.118Z,100290.7
2022-08-22T10:24:43.816Z,100290.7
2022-08-22T10:26:32.401Z,100298.71
2022-08-22T10:26:45.166Z,100298.71
2022-08-22T10:28:07.795Z,100298.71
2022-08-22T10:31:52.740Z,100295.67
2022-08-22T10:33:29.195Z,100295.67
2022-08-22T10:36:26.268Z,100299.91
2022-08-22T10:36:37.574Z,100299.91
2022-08-22T10:38:31.691Z,100299.91
2022-08-22T10:41:29.061Z,100302.84
2022-08-22T10:41:36.026Z,100302.84
2022-08-22T10:43:48.720Z,100302.84
2022-08-22T10:46:03.646Z,100305.31999999999
2022-08-22T10:46:35.076Z,100305.31999999999
2022-08-22T10:48:22.515Z,100305.31999999999
2022-08-22T10:50:23.029Z,100305.31999999999
2022-08-22T10:51:36.692Z,100310.03
2022-08-22T10:53:29.492Z,100310.03
2022-08-22T10:56:35.846Z,100314.15
2022-08-22T10:57:52.717Z,100314.15
2022-08-22T10:59:28.347Z,100314.15
2022-08-22T11:01:38.120Z,100317.9
2022-08-22T11:02:48.575Z,100317.9
2022-08-22T11:05:18.310Z,100317.9
2022-08-22T11:06:05.258Z,100319.06
2022-08-22T11:06:34.469Z,100319.06
2022-08-22T11:08:59.089Z,100319.06
2022-08-22T11:11:04.257Z,100312.17
2022-08-22T11:11:37.195Z,100312.17
2022-08-22T11:13:21.154Z,100312.17
2022-08-22T11:15:43.266Z,100312.17
2022-08-22T11:16:42.929Z,100318.34999999999
2022-08-22T11:18:10.747Z,100318.34999999999
2022-08-22T11:20:09.204Z,100318.34999999999
2022-08-22T11:21:40.254Z,100314.42
2022-08-22T11:23:26.813Z,100314.42
2022-08-22T11:25:43.752Z,100314.42
2022-08-22T11:26:47.086Z,100317.22
2022-08-22T11:28:39.434Z,100317.22
2022-08-22T11:30:45.304Z,100317.22
2022-08-22T11:31:51.257Z,100314.73
2022-08-22T11:33:13.716Z,100314.73
2022-08-22T11:34:45.543Z,100314.73
2022-08-22T11:36:35.815Z,100318.11
2022-08-22T11:38:10.991Z,100318.11
2022-08-22T11:40:48.744Z,100318.11
2022-08-22T11:41:37.303Z,100317.28
2022-08-22T11:42:21.891Z,100317.28
2022-08-22T11:44:27.163Z,100317.28
2022-08-22T11:46:32.579Z,100314.72
2022-08-22T11:48:26.779Z,100314.72
2022-08-22T11:50:33.806Z,100314.72
2022-08-22T11:51:34.220Z,100315.32999999999
2022-08-22T11:51:54.416Z,100315.32999999999
2022-08-22T11:53:21.342Z,100315.32999999999
2022-08-22T11:56:21.357Z,100314.12
2022-08-22T11:56:35.865Z,100314.12
2022-08-22T11:58:27.289Z,100314.12
2022-08-22T12:00:37.930Z,100314.12
2022-08-22T12:01:36.727Z,100319.95
2022-08-22T12:03:11.563Z,100319.95
2022-08-22T12:05:38.883Z,100319.95
2022-08-22T12:06:45.081Z,100312.73
2022-08-22T12:09:05.970Z,100312.73
2022-08-22T12:11:38.054Z,100314.20000000001
2022-08-22T12:13:16.549Z,100314.20000000001
2022-08-22T12:16:18.251Z,100308.89
2022-08-22T12:16:40.815Z,100308.89
2022-08-22T12:18:04.155Z,100308.89
2022-08-22T12:19:28.050Z,100308.89
2022-08-22T12:21:49.608Z,100307.44
2022-08-22T12:25:44.435Z,100307.44
2022-08-22T12:26:38.820Z,100310.39
2022-08-22T12:27:57.324Z,100310.39
2022-08-22T12:30:30.390Z,100310.39
2022-08-22T12:31:37.006Z,100310.69
2022-08-22T12:33:15.579Z,100310.69
2022-08-22T12:34:21.184Z,100310.69
2022-08-22T12:36:04.789Z,100313.73
2022-08-22T12:36:48.346Z,100313.73
2022-08-22T12:40:53.590Z,100313.73
2022-08-22T12:41:39.158Z,100311.28
2022-08-22T12:43:35.552Z,100311.28
2022-08-22T12:44:58.860Z,100311.28
2022-08-22T12:46:23.730Z,100307.08
2022-08-22T12:46:47.152Z,100307.08
2022-08-22T12:48:51.242Z,100307.08
2022-08-22T12:50:53.801Z,100307.08
2022-08-22T12:51:35.219Z,100305.03
2022-08-22T12:52:46.216Z,100305.03
2022-08-22T12:54:21.584Z,100305.03
2022-08-22T12:56:36.344Z,100300.09
2022-08-22T12:58:06.362Z,100300.09
2022-08-22T13:00:11.684Z,100300.09
2022-08-22T13:01:34.264Z,100299.69
2022-08-22T13:02:00.319Z,100299.69
2022-08-22T13:04:33.877Z,100299.69
2022-08-22T13:06:37.918Z,100300.56
2022-08-22T13:06:48.594Z,100300.56
2022-08-22T13:08:24.139Z,100300.56
2022-08-22T13:10:35.771Z,100300.56
2022-08-22T13:11:37.909Z,100298.78
2022-08-22T13:13:12.748Z,100298.78
2022-08-22T13:15:28.670Z,100298.78
2022-08-22T13:16:36.581Z,100301.45
2022-08-22T13:17:24.893Z,100301.45
2022-08-22T13:21:06.367Z,100298.82
2022-08-22T13:21:36.149Z,100298.82
2022-08-22T13:22:26.543Z,100298.82
2022-08-22T13:24:38.499Z,100298.82
2022-08-22T13:26:34.557Z,100297.27
2022-08-22T13:27:31.957Z,100297.27
2022-08-22T13:28:56.874Z,100297.27
2022-08-22T13:30:56.284Z,100304.33
2022-08-22T13:31:31.876Z,100304.33
2022-08-22T13:33:09.426Z,100304.33
2022-08-22T13:35:24.372Z,100304.33
2022-08-22T13:36:32.649Z,100298.97
2022-08-22T13:38:46.694Z,100298.97
2022-08-22T13:41:07.184Z,100294.33
2022-08-22T13:41:32.599Z,100294.33
2022-08-22T13:42:32.700Z,100294.33
2022-08-22T13:44:43.001Z,100294.33
2022-08-22T13:46:30.041Z,100289.59
2022-08-22T13:48:46.717Z,100289.59
2022-08-22T13:50:15.922Z,100289.59
2022-08-22T13:51:34.757Z,100288.81999999999
2022-08-22T13:52:31.717Z,100288.81999999999
2022-08-22T13:54:50.208Z,100288.81999999999
2022-08-22T13:56:23.146Z,100281.84
2022-08-22T13:56:47.894Z,100281.84
2022-08-22T13:58:36.845Z,100281.84
2022-08-22T14:01:41.384Z,100285.85
2022-08-22T14:02:36.216Z,100285.85
2022-08-22T14:05:54.771Z,100285.85
2022-08-22T14:06:37.881Z,100283.47
2022-08-22T14:07:54.569Z,100283.47
2022-08-22T14:10:20.418Z,100283.47
2022-08-22T14:11:39.267Z,100276.64
2022-08-22T14:14:09.471Z,100276.64
2022-08-22T14:16:21.339Z,100268.84
2022-08-22T14:16:32.556Z,100268.84
2022-08-22T14:18:46.027Z,100268.84
2022-08-22T14:20:48.646Z,100268.84
2022-08-22T14:21:40.071Z,100267.11
2022-08-22T14:23:28.253Z,100267.11
2022-08-22T14:25:36.793Z,100267.11
2022-08-22T14:26:37.197Z,100267.04
2022-08-22T14:28:34.641Z,100267.04
2022-08-22T14:30:54.272Z,100267.04
2022-08-22T14:31:29.245Z,100269.20999999999
2022-08-22T14:33:16.706Z,100269.20999999999
2022-08-22T14:34:38.188Z,100269.20999999999
2022-08-22T14:36:37.907Z,100267.69
2022-08-22T14:37:48.832Z,100267.69
2022-08-22T14:39:43.595Z,100267.69
2022-08-22T14:41:28.097Z,100266.14
2022-08-22T14:41:56.171Z,100266.14
2022-08-22T14:43:22.584Z,100266.14
2022-08-22T14:45:24.946Z,100266.14
2022-08-22T14:46:33.780Z,100270.01000000001
2022-08-22T14:48:40.747Z,100270.01000000001
2022-08-22T14:50:49.911Z,100270.01000000001
2022-08-22T14:51:28.864Z,100274.87999999999
2022-08-22T14:53:26.943Z,100274.87999999999
2022-08-22T14:54:36.480Z,100274.87999999999
2022-08-22T14:56:18.145Z,100271.73
2022-08-22T14:56:28.921Z,100271.73
2022-08-22T14:58:15.042Z,100271.73
2022-08-22T15:01:09.253Z,100270.42
2022-08-22T15:01:32.911Z,100270.42
2022-08-22T15:03:41.076Z,100270.42
2022-08-22T15:06:35.835Z,100266.49
2022-08-22T15:06:47.786Z,100266.49
2022-08-22T15:08:00.706Z,100266.49
2022-08-22T15:10:21.531Z,100266.49
2022-08-22T15:11:31.936Z,100264.51
2022-08-22T15:12:20.466Z,100264.51
2022-08-22T15:14:23.011Z,100264.51
2022-08-22T15:15:41.080Z,100264.51
2022-08-22T15:16:33.235Z,100258.68000000001
2022-08-22T15:17:31.239Z,100258.68000000001
2022-08-22T15:19:20.334Z,100258.68000000001
2022-08-22T15:20:49.071Z,100258.68000000001
2022-08-22T15:21:30.910Z,100262.2
2022-08-22T15:23:21.574Z,100262.2
2022-08-22T15:25:55.049Z,100262.2
2022-08-22T15:26:31.905Z,100262.2
2022-08-22T15:28:20.328Z,100262.2
2022-08-22T15:31:03.973Z,100262.17
2022-08-22T15:31:28.766Z,100262.17
2022-08-22T15:33:24.971Z,100262.17
2022-08-22T15:35:33.553Z,100262.17
2022-08-22T15:36:28.616Z,100259.27
2022-08-22T15:38:31.570Z,100259.27
2022-08-22T15:40:40.723Z,100259.27
2022-08-22T15:41:37.266Z,100256.17
2022-08-22T15:43:12.502Z,100256.17
2022-08-22T15:45:33.986Z,100256.17
2022-08-22T15:46:31.794Z,100257.81
2022-08-22T15:48:09.549Z,100257.81
2022-08-22T15:50:35.356Z,100257.81
2022-08-22T15:51:37.482Z,100251.53
2022-08-22T15:54:00.053Z,100251.53
2022-08-22T15:56:09.788Z,100254.08
2022-08-22T15:56:32.017Z,100254.08
2022-08-22T15:58:04.015Z,100254.08
2022-08-22T16:00:31.545Z,100254.08
2022-08-22T16:01:41.280Z,100249.44
2022-08-22T16:03:08.656Z,100249.44
2022-08-22T16:05:54.538Z,100249.44
2022-08-22T16:06:39.753Z,100251.83
2022-08-22T16:08:29.635Z,100251.83
2022-08-22T16:10:39.871Z,100251.83
2022-08-22T16:11:33.436Z,100250.3
2022-08-22T16:12:46.648Z,100250.3
2022-08-22T16:16:48.486Z,100251.54
2022-08-22T16:16:54.297Z,100251.54
2022-08-22T16:16:59.761Z,100251.54
2022-08-22T16:18:43.651Z,100251.54
2022-08-22T16:20:39.121Z,100251.54
2022-08-22T16:21:48.256Z,100250.09
2022-08-22T16:22:13.776Z,100250.09
2022-08-22T16:24:11.604Z,100250.09
2022-08-22T16:25:58.921Z,100257.64
2022-08-22T16:26:37.593Z,100257.64
2022-08-22T16:28:03.521Z,100257.64
2022-08-22T16:30:14.442Z,100257.64
2022-08-22T16:31:33.867Z,100259.74
2022-08-22T16:33:30.108Z,100259.74
2022-08-22T16:35:39.286Z,100259.74
2022-08-22T16:36:40.724Z,100264.09999999999
2022-08-22T16:37:42.952Z,100264.09999999999
2022-08-22T16:38:23.262Z,100264.09999999999
2022-08-22T16:40:46.123Z,100264.09999999999
2022-08-22T16:41:32.625Z,100267.64
2022-08-22T16:42:24.790Z,100267.64
2022-08-22T16:44:54.670Z,100267.64
2022-08-22T16:46:25.574Z,100270.76
2022-08-22T16:46:33.271Z,100270.76
2022-08-22T16:49:27.258Z,100270.76
2022-08-22T16:51:28.602Z,100276.56
2022-08-22T16:52:05.013Z,100276.56
2022-08-22T16:53:45.806Z,100276.56
2022-08-22T16:55:38.280Z,100276.56
2022-08-22T16:56:33.961Z,100272.85
2022-08-22T16:57:32.360Z,100272.85
2022-08-22T16:59:38.310Z,100272.85
2022-08-22T17:01:44.232Z,100274.14
2022-08-22T17:03:17.793Z,100274.14
2022-08-22T17:05:20.570Z,100274.14
2022-08-22T17:06:40.879Z,100278.3
2022-08-22T17:07:21.880Z,100278.3
2022-08-22T17:09:40.681Z,100278.3
2022-08-22T17:11:37.674Z,100284.14
2022-08-22T17:13:16.628Z,100284.14
2022-08-22T17:15:12.858Z,100284.14
2022-08-22T17:16:44.998Z,100288.92
2022-08-22T17:18:33.713Z,100288.92
2022-08-22T17:20:19.603Z,100288.92
2022-08-22T17:21:36.387Z,100289.56
2022-08-22T17:22:40.347Z,100289.56
2022-08-22T17:25:33.625Z,100289.56
2022-08-22T17:26:37.728Z,100288.95
2022-08-22T17:28:34.312Z,100288.95
2022-08-22T17:30:40.317Z,100288.95
2022-08-22T17:31:35.347Z,100300.67
2022-08-22T17:33:00.194Z,100300.67
2022-08-22T17:35:36.677Z,100300.67
2022-08-22T17:36:41.522Z,100302.28
2022-08-22T17:37:43.602Z,100302.28
2022-08-22T17:39:46.145Z,100302.28
2022-08-22T17:41:37.297Z,100306.65000000001
2022-08-22T17:43:33.534Z,100306.65000000001
2022-08-22T17:45:20.960Z,100306.65000000001
2022-08-22T17:46:34.734Z,100315.42
2022-08-22T17:50:17.791Z,100315.42
2022-08-22T17:51:33.289Z,100316.18999999999
2022-08-22T17:52:54.114Z,100316.18999999999
2022-08-22T17:54:52.642Z,100316.18999999999
2022-08-22T17:56:03.585Z,100318.37000000001
2022-08-22T17:56:40.072Z,100318.37000000001
2022-08-22T18:01:42.709Z,100327.20000000001
2022-08-22T18:06:33.544Z,100340.22
2022-08-22T18:11:40.174Z,100349.7
2022-08-22T18:14:44.168Z,100349.7